Time;durP1;ratioP1;P1;durP2;ratioP2;P2;SDS_P1;SDS_P2;PMS_P1;PMS_P2;Temp;Humidity;BMP_temperature;BMP_pressure;BME280_temperature;BME280_humidity;BME280_pressure;Samples;Min_cycle;Max_cycle;Signal;HPM_P1;HPM_P2
2023/01/20 00:02:52;;;;;;;29.03;18.13;;;2.10;99.90;;;;;;2615974;54;20325;-72
2023/01/20 00:08:39;;;;;;;38.57;24.23;;;2.10;99.90;;;;;;2615739;54;20126;-71
2023/01/20 00:14:27;;;;;;;42.93;23.00;;;2.00;99.90;;;;;;2613419;54;20139;-72
2023/01/20 00:17:06;;;;;;;41.93;24.37;;;1.90;99.90;;;;;;2611962;47;20410;-71
2023/01/20 00:19:31;;;;;;;37.17;23.80;;;1.90;99.90;;;;;;2615786;39;20587;-71
2023/01/20 00:25:19;;;;;;;46.03;25.50;;;1.90;99.90;;;;;;2614866;54;20178;-71
2023/01/20 00:31:17;;;;;;;43.93;27.73;;;1.90;99.90;;;;;;2614356;54;20122;-72
2023/01/20 00:37:04;;;;;;;47.53;27.87;;;1.90;99.90;;;;;;2614587;54;20908;-71
2023/01/20 00:42:52;;;;;;;49.43;25.97;;;1.80;99.90;;;;;;2615529;54;20222;-70
2023/01/20 00:48:40;;;;;;;49.07;28.70;;;1.80;99.90;;;;;;2613777;54;20134;-70
2023/01/20 00:54:28;;;;;;;41.97;21.10;;;1.80;99.90;;;;;;2615172;54;21019;-71
2023/01/20 01:00:17;;;;;;;39.43;19.17;;;1.70;99.90;;;;;;2613037;54;20134;-72
2023/01/20 01:06:10;;;;;;;48.73;26.50;;;1.70;99.90;;;;;;2615328;54;20370;-71
2023/01/20 01:11:57;;;;;;;46.17;24.53;;;1.70;99.90;;;;;;2614755;54;20928;-71
2023/01/20 01:21:38;;;;;;;56.57;31.57;;;1.70;99.90;;;;;;2615234;54;20997;-72
2023/01/20 01:27:27;;;;;;;54.00;29.77;;;1.80;99.90;;;;;;2615524;54;21282;-72
2023/01/20 01:33:15;;;;;;;54.30;28.40;;;1.70;99.90;;;;;;2615029;54;20391;-71
2023/01/20 01:39:03;;;;;;;41.73;26.27;;;1.80;99.90;;;;;;2614166;54;20150;-72
2023/01/20 01:45:09;;;;;;;39.63;23.47;;;1.80;99.90;;;;;;2613240;54;20154;-71
2023/01/20 01:57:30;;;;;;;35.93;22.40;;;1.70;99.90;;;;;;2615473;54;20507;-71
2023/01/20 02:03:19;;;;;;;48.77;26.00;;;1.60;99.90;;;;;;2613458;54;20387;-70
2023/01/20 02:09:07;;;;;;;52.00;25.43;;;1.70;99.90;;;;;;2615557;54;20411;-71
2023/01/20 02:14:57;;;;;;;50.80;26.43;;;1.60;99.90;;;;;;2614722;54;20846;-71
2023/01/20 02:21:13;;;;;;;43.47;26.00;;;1.70;99.90;;;;;;2614493;46;20418;-71
2023/01/20 02:27:22;;;;;;;41.77;22.67;;;1.70;99.90;;;;;;2615770;39;20453;-71
2023/01/20 02:49:28;;;;;;;62.87;32.73;;;1.70;99.90;;;;;;2611791;54;20374;-71
2023/01/20 03:05:48;;;;;;;55.13;29.97;;;1.60;99.90;;;;;;2611660;54;20491;-71
2023/01/20 03:11:39;;;;;;;47.10;23.07;;;1.40;99.90;;;;;;2613320;54;20481;-72
2023/01/20 03:21:40;;;;;;;44.00;23.60;;;1.40;99.90;;;;;;2614326;39;20840;-70
2023/01/20 03:27:27;;;;;;;53.53;24.87;;;1.40;99.90;;;;;;2613847;54;20468;-69
2023/01/20 03:33:16;;;;;;;44.37;25.67;;;1.40;99.90;;;;;;2613505;54;20126;-73
2023/01/20 03:39:04;;;;;;;46.30;27.63;;;1.40;99.90;;;;;;2617028;39;20763;-70
2023/01/20 03:45:07;;;;;;;34.03;17.67;;;1.40;99.90;;;;;;2613238;54;20379;-71
2023/01/20 04:03:47;;;;;;;51.30;24.40;;;1.40;99.90;;;;;;2614131;54;20379;-71
2023/01/20 04:09:37;;;;;;;46.03;25.60;;;1.40;99.90;;;;;;2613686;54;20402;-71
2023/01/20 04:15:27;;;;;;;44.47;23.93;;;1.40;99.90;;;;;;2615797;54;20373;-71
2023/01/20 04:32:15;;;;;;;25.70;15.00;;;1.40;99.90;;;;;;2613759;54;20419;-71
2023/01/20 04:38:03;;;;;;;52.00;26.67;;;1.40;99.90;;;;;;2614002;54;20363;-70
2023/01/20 04:43:51;;;;;;;31.03;18.33;;;1.50;99.90;;;;;;2615371;54;20427;-70
2023/01/20 04:49:38;;;;;;;47.40;25.03;;;1.50;99.90;;;;;;2612302;54;20130;-71
2023/01/20 04:55:26;;;;;;;54.93;30.23;;;1.40;99.90;;;;;;2613674;54;20283;-71
2023/01/20 05:01:14;;;;;;;57.37;26.67;;;1.50;99.90;;;;;;2614445;54;20374;-70
2023/01/20 05:07:02;;;;;;;43.27;22.47;;;1.40;99.90;;;;;;2614219;54;20151;-70
2023/01/20 05:12:50;;;;;;;43.90;23.33;;;1.40;99.90;;;;;;2613289;54;20154;-71
2023/01/20 05:21:59;;;;;;;49.57;26.10;;;1.20;99.90;;;;;;2614353;54;21367;-70
2023/01/20 05:27:47;;;;;;;44.50;23.07;;;1.20;99.90;;;;;;2615647;54;20117;-71
2023/01/20 05:33:36;;;;;;;45.83;23.73;;;1.20;99.90;;;;;;2612484;54;20177;-71
2023/01/20 05:39:24;;;;;;;42.17;22.70;;;1.20;99.90;;;;;;2614692;39;20890;-72
2023/01/20 05:45:11;;;;;;;39.33;21.07;;;1.30;99.90;;;;;;2615407;54;20149;-71
2023/01/20 05:50:59;;;;;;;36.77;21.23;;;1.30;99.90;;;;;;2612891;54;20157;-72
2023/01/20 05:56:48;;;;;;;48.50;21.30;;;1.40;99.90;;;;;;2615277;54;20170;-70
2023/01/20 06:02:35;;;;;;;38.30;21.37;;;1.40;99.90;;;;;;2614126;54;20391;-71
2023/01/20 06:08:23;;;;;;;30.73;15.60;;;1.40;99.90;;;;;;2613672;54;20713;-71
2023/01/20 06:14:11;;;;;;;29.57;17.73;;;1.50;99.90;;;;;;2614666;54;20507;-71
2023/01/20 06:17:23;;;;;;;33.30;19.97;;;1.50;99.90;;;;;;2615091;47;20402;-71
2023/01/20 06:19:49;;;;;;;25.43;14.90;;;1.50;99.90;;;;;;2615168;54;20162;-69
2023/01/20 06:25:37;;;;;;;32.60;17.07;;;1.60;99.90;;;;;;2612724;54;20158;-70
2023/01/20 06:31:27;;;;;;;32.30;16.60;;;1.70;99.90;;;;;;2612484;54;20161;-71
2023/01/20 06:37:15;;;;;;;26.57;16.20;;;1.60;99.90;;;;;;2612321;54;20496;-70
2023/01/20 06:43:02;;;;;;;27.40;16.00;;;1.60;99.90;;;;;;2613537;54;20146;-70
2023/01/20 06:45:32;;;;;;;30.80;17.93;;;1.60;99.90;;;;;;2613838;54;21246;-74
2023/01/20 06:47:57;;;;;;;36.60;19.20;;;1.60;99.90;;;;;;2615578;54;20925;-70
2023/01/20 06:53:46;;;;;;;31.07;18.30;;;1.60;99.90;;;;;;2615192;54;20256;-72
2023/01/20 06:59:34;;;;;;;30.20;16.93;;;1.70;99.90;;;;;;2615232;54;20374;-72
2023/01/20 07:05:22;;;;;;;36.67;21.83;;;1.70;99.90;;;;;;2614747;54;20225;-70
2023/01/20 07:11:10;;;;;;;46.70;23.77;;;1.60;99.90;;;;;;2613312;54;20135;-71
2023/01/20 07:16:57;;;;;;;47.73;23.57;;;1.60;99.90;;;;;;2611897;46;20434;-71
2023/01/20 07:22:45;;;;;;;39.17;20.63;;;1.50;99.90;;;;;;2613038;54;20237;-73
2023/01/20 07:26:04;;;;;;;37.97;20.13;;;1.60;99.90;;;;;;2612163;54;20410;-71
2023/01/20 07:28:36;;;;;;;45.67;23.27;;;1.60;99.90;;;;;;2608480;54;20826;-71
2023/01/20 07:34:24;;;;;;;35.57;21.30;;;1.60;99.90;;;;;;2613892;54;20418;-72
2023/01/20 07:40:12;;;;;;;42.80;23.13;;;1.50;99.90;;;;;;2613239;54;20134;-73
2023/01/20 07:46:01;;;;;;;38.80;21.87;;;1.60;99.90;;;;;;2612090;54;20406;-69
2023/01/20 07:51:49;;;;;;;39.33;23.50;;;1.70;99.90;;;;;;2613967;39;20790;-71
2023/01/20 07:57:37;;;;;;;37.17;20.70;;;1.70;99.90;;;;;;2613477;54;20130;-69
2023/01/20 08:03:24;;;;;;;25.20;18.00;;;1.70;99.90;;;;;;2615397;54;20131;-71
2023/01/20 08:09:13;;;;;;;23.20;16.37;;;1.70;99.90;;;;;;2615144;54;20134;-70
2023/01/20 08:15:04;;;;;;;25.87;15.93;;;1.80;99.90;;;;;;2615644;54;20394;-70
2023/01/20 08:20:52;;;;;;;26.07;15.47;;;1.90;99.90;;;;;;2614359;54;20406;-72
2023/01/20 08:26:39;;;;;;;22.37;16.27;;;1.90;99.90;;;;;;2615839;54;20699;-71
2023/01/20 08:29:08;;;;;;;18.57;12.80;;;2.10;99.90;;;;;;2611822;47;20439;-72
2023/01/20 08:31:34;;;;;;;24.47;16.67;;;2.20;99.90;;;;;;2614841;54;20182;-71
2023/01/20 08:37:22;;;;;;;25.90;13.87;;;3.50;99.90;;;;;;2615920;46;20159;-70
2023/01/20 08:43:10;;;;;;;29.83;19.03;;;3.00;99.90;;;;;;2616016;39;20777;-71
2023/01/20 08:48:58;;;;;;;31.80;18.80;;;3.40;99.90;;;;;;2615324;54;20130;-71
2023/01/20 08:54:45;;;;;;;18.60;14.53;;;2.60;99.90;;;;;;2615515;54;20130;-71
2023/01/20 09:00:33;;;;;;;23.17;17.60;;;2.50;99.90;;;;;;2614700;54;20242;-69
2023/01/20 09:06:21;;;;;;;25.80;19.27;;;2.40;99.90;;;;;;2612287;54;20150;-72
2023/01/20 09:12:08;;;;;;;33.00;18.90;;;2.50;99.90;;;;;;2615300;54;20150;-70
2023/01/20 09:17:57;;;;;;;24.90;17.10;;;2.40;99.90;;;;;;2615296;39;20206;-71
2023/01/20 09:23:47;;;;;;;28.57;17.93;;;2.60;99.90;;;;;;2611979;54;20398;-71
2023/01/20 09:29:35;;;;;;;31.00;20.80;;;2.60;99.90;;;;;;2615116;54;20398;-72
2023/01/20 09:35:23;;;;;;;31.80;18.93;;;2.50;99.90;;;;;;2613414;54;20516;-72
2023/01/20 10:00:45;;;;;;;28.20;18.23;;;3.00;99.90;;;;;;2612595;54;20400;-72
2023/01/20 10:06:36;;;;;;;26.00;16.60;;;3.40;99.90;;;;;;2613828;54;20864;-72
2023/01/20 10:12:30;;;;;;;22.83;18.00;;;3.30;99.90;;;;;;2613444;54;20374;-70
2023/01/20 10:30:54;;;;;;;25.17;19.00;;;2.90;99.90;;;;;;2613259;54;20458;-70
2023/01/20 10:33:45;;;;;;;28.70;18.97;;;3.00;99.90;;;;;;2611973;54;20506;-71
2023/01/20 10:46:01;;;;;;;23.67;17.70;;;3.40;99.90;;;;;;2615421;54;20407;-71
2023/01/20 10:58:40;;;;;;;22.43;17.93;;;3.50;99.90;;;;;;2611042;54;20422;-71
2023/01/20 11:04:30;;;;;;;20.67;16.70;;;3.20;99.90;;;;;;2612449;54;20367;-71
2023/01/20 11:16:32;;;;;;;28.30;21.07;;;3.60;99.90;;;;;;2614024;54;20384;-72
2023/01/20 11:19:34;;;;;;;33.10;23.17;;;3.20;99.90;;;;;;2613176;39;20881;-72
2023/01/20 11:29:13;;;;;;;28.63;20.70;;;3.60;99.90;;;;;;2611150;46;20423;-71
2023/01/20 11:41:43;;;;;;;30.40;20.27;;;3.20;99.90;;;;;;2615206;54;20441;-71
2023/01/20 11:47:32;;;;;;;25.57;17.27;;;3.40;99.90;;;;;;2615042;54;20146;-70
2023/01/20 11:53:22;;;;;;;21.57;16.60;;;3.40;99.90;;;;;;2615386;54;20381;-73
2023/01/20 12:18:58;;;;;;;15.30;13.70;;;3.40;99.90;;;;;;2613080;54;20379;-73
2023/01/20 12:34:29;;;;;;;16.60;14.90;;;3.50;99.90;;;;;;2609669;39;20491;-72
2023/01/20 12:40:26;;;;;;;15.30;12.50;;;3.60;99.90;;;;;;2609795;54;20523;-70
2023/01/20 12:56:27;;;;;;;14.60;11.70;;;4.00;99.90;;;;;;2613545;54;20425;-72
2023/01/20 13:02:15;;;;;;;14.37;10.50;;;4.00;99.90;;;;;;2614618;39;20737;-70
2023/01/20 13:08:02;;;;;;;15.67;14.07;;;4.00;99.90;;;;;;2614850;54;20182;-72
2023/01/20 13:20:29;;;;;;;15.63;13.90;;;4.20;99.90;;;;;;2613080;54;20508;-72
2023/01/20 13:26:17;;;;;;;16.50;13.70;;;4.30;99.90;;;;;;2615158;39;20895;-72
2023/01/20 13:29:30;;;;;;;16.13;13.40;;;4.40;99.90;;;;;;2613489;54;20428;-72
2023/01/20 13:31:55;;;;;;;15.50;12.40;;;4.20;99.90;;;;;;2615285;54;20418;-73
2023/01/20 13:37:48;;;;;;;13.30;11.90;;;4.40;99.90;;;;;;2614293;54;20195;-72
2023/01/20 13:43:42;;;;;;;21.93;11.60;;;3.90;99.90;;;;;;2614224;54;20423;-72
2023/01/20 13:49:50;;;;;;;16.90;12.40;;;4.00;99.90;;;;;;2613525;54;20390;-71
2023/01/20 13:55:44;;;;;;;20.47;12.37;;;3.90;99.90;;;;;;2615178;47;21392;-71
2023/01/20 14:01:34;;;;;;;18.50;12.67;;;3.50;99.90;;;;;;2615544;54;20379;-71
2023/01/20 14:07:24;;;;;;;16.53;13.87;;;3.40;99.90;;;;;;2613746;54;20410;-71
2023/01/20 14:19:53;;;;;;;14.10;12.67;;;3.60;99.90;;;;;;2613777;54;20342;-73
2023/01/20 14:25:40;;;;;;;14.23;11.13;;;3.50;99.90;;;;;;2615098;54;20334;-71
2023/01/20 14:31:35;;;;;;;13.53;12.33;;;3.20;99.90;;;;;;2614528;54;20202;-70
2023/01/20 14:37:36;;;;;;;14.77;12.73;;;2.90;99.90;;;;;;2613868;54;20411;-72
2023/01/20 14:43:26;;;;;;;15.93;12.80;;;2.90;99.90;;;;;;2612446;54;20367;-72
2023/01/20 14:49:16;;;;;;;18.00;13.13;;;2.90;99.90;;;;;;2613791;54;20382;-72
2023/01/20 14:55:04;;;;;;;13.87;12.37;;;2.80;99.90;;;;;;2614806;54;20402;-72
2023/01/20 15:00:58;;;;;;;13.53;12.13;;;2.80;99.90;;;;;;2613710;54;20355;-71
2023/01/20 15:06:56;;;;;;;15.97;14.27;;;2.80;99.90;;;;;;2612980;54;20415;-71
2023/01/20 15:12:46;;;;;;;16.63;13.20;;;2.70;99.90;;;;;;2614591;54;20378;-72
2023/01/20 15:18:34;;;;;;;13.80;12.37;;;2.70;99.90;;;;;;2614151;46;20410;-71
2023/01/20 15:24:30;;;;;;;13.90;12.03;;;2.70;99.90;;;;;;2614995;54;20122;-71
2023/01/20 15:34:01;;;;;;;17.60;13.67;;;2.60;99.90;;;;;;2615209;54;20503;-71
2023/01/20 15:39:49;;;;;;;18.23;12.57;;;2.40;99.90;;;;;;2615399;54;20367;-72
2023/01/20 15:45:37;;;;;;;12.90;11.40;;;2.20;99.90;;;;;;2614631;39;20289;-71
2023/01/20 15:51:24;;;;;;;17.27;12.77;;;2.10;99.90;;;;;;2615584;39;20624;-71
2023/01/20 15:57:14;;;;;;;15.60;13.57;;;2.00;99.90;;;;;;2615273;54;20154;-72
2023/01/20 16:03:02;;;;;;;23.27;12.87;;;1.90;99.90;;;;;;2612283;54;20385;-70
2023/01/20 16:08:50;;;;;;;20.20;14.70;;;1.60;99.90;;;;;;2615118;54;20947;-71
2023/01/20 16:14:38;;;;;;;18.77;14.60;;;1.60;99.90;;;;;;2612627;54;20243;-72
2023/01/20 16:20:25;;;;;;;20.27;14.70;;;1.70;99.90;;;;;;2614015;54;20388;-72
2023/01/20 16:26:25;;;;;;;18.67;13.43;;;1.60;99.90;;;;;;2612229;54;20134;-72
2023/01/20 16:29:30;;;;;;;17.97;13.27;;;1.20;99.90;;;;;;2612492;46;20437;-71
2023/01/20 16:31:58;;;;;;;17.77;13.83;;;1.20;99.90;;;;;;2612784;54;21000;-72
2023/01/20 16:37:46;;;;;;;19.33;14.37;;;1.10;99.90;;;;;;2612487;39;21222;-72
2023/01/20 16:43:40;;;;;;;20.13;13.87;;;1.00;99.90;;;;;;2613866;54;20379;-72
2023/01/20 16:49:28;;;;;;;18.97;14.30;;;0.80;99.90;;;;;;2612137;54;20953;-70
2023/01/20 16:55:16;;;;;;;20.03;14.77;;;0.70;99.90;;;;;;2613077;54;20589;-71
2023/01/20 17:01:10;;;;;;;17.10;12.90;;;0.60;99.90;;;;;;2612345;54;20985;-72
2023/01/20 17:06:58;;;;;;;21.67;14.47;;;0.20;99.90;;;;;;2615499;54;20511;-70
2023/01/20 17:12:46;;;;;;;21.43;15.60;;;0.10;99.90;;;;;;2611982;54;20174;-70
2023/01/20 17:18:34;;;;;;;22.13;15.20;;;0.00;99.90;;;;;;2613868;54;20395;-70
2023/01/20 17:24:22;;;;;;;23.80;16.70;;;-0.40;99.90;;;;;;2613708;54;20134;-75
2023/01/20 17:34:08;;;;;;;20.90;15.90;;;-0.50;99.90;;;;;;2609830;54;21032;-69
2023/01/20 17:39:55;;;;;;;21.03;15.30;;;-0.50;99.90;;;;;;2611513;54;20439;-70
2023/01/20 17:45:43;;;;;;;24.33;17.00;;;-0.60;99.90;;;;;;2611399;54;20133;-71
2023/01/20 17:51:31;;;;;;;26.97;17.77;;;-0.40;99.90;;;;;;2615069;54;20261;-70
2023/01/20 17:57:19;;;;;;;21.90;16.00;;;-0.70;99.90;;;;;;2615851;54;20153;-71
2023/01/20 18:03:06;;;;;;;21.93;14.80;;;-0.40;99.90;;;;;;2615762;54;20165;-71
2023/01/20 18:08:58;;;;;;;28.27;18.43;;;-0.30;99.90;;;;;;2615306;54;20407;-75
2023/01/20 18:14:45;;;;;;;27.13;15.70;;;-0.30;99.90;;;;;;2615114;54;20430;-72
2023/01/20 18:20:33;;;;;;;36.53;17.50;;;-0.30;99.90;;;;;;2614295;54;20135;-71
2023/01/20 18:26:23;;;;;;;25.83;17.97;;;-0.50;99.90;;;;;;2614505;54;20134;-74
2023/01/20 18:29:34;;;;;;;27.77;19.40;;;-0.50;99.90;;;;;;2614597;47;20416;-70
2023/01/20 18:32:00;;;;;;;30.77;17.70;;;-0.70;99.90;;;;;;2614979;54;20416;-71
2023/01/20 18:37:47;;;;;;;27.40;19.00;;;-0.80;99.90;;;;;;2615574;39;20746;-71
2023/01/20 18:43:36;;;;;;;30.17;21.10;;;-0.80;99.90;;;;;;2615344;54;20126;-70
2023/01/20 18:49:24;;;;;;;30.97;22.00;;;-0.80;99.90;;;;;;2615342;39;20732;-71
2023/01/20 18:55:12;;;;;;;33.57;22.93;;;-0.80;99.90;;;;;;2615571;54;20170;-71
2023/01/20 19:01:04;;;;;;;40.13;21.47;;;-1.00;99.90;;;;;;2615023;54;20153;-71
2023/01/20 19:06:52;;;;;;;31.07;19.73;;;-1.00;99.90;;;;;;2615525;54;20370;-71
2023/01/20 19:12:39;;;;;;;27.30;20.77;;;-1.30;99.90;;;;;;2614312;54;20242;-70
2023/01/20 19:18:27;;;;;;;29.87;21.40;;;-1.30;99.90;;;;;;2612382;54;20129;-73
2023/01/20 19:24:19;;;;;;;31.90;20.63;;;-1.50;99.90;;;;;;2613186;54;20150;-72
2023/01/20 19:34:03;;;;;;;39.53;24.27;;;-1.50;99.90;;;;;;2613708;54;20407;-70
2023/01/20 19:39:51;;;;;;;35.87;21.70;;;-1.80;99.90;;;;;;2613156;54;20466;-72
2023/01/20 19:45:39;;;;;;;26.17;19.47;;;-2.00;99.90;;;;;;2613129;54;20135;-75
2023/01/20 19:51:27;;;;;;;32.63;20.47;;;-1.90;99.90;;;;;;2615598;54;20365;-72
2023/01/20 19:57:15;;;;;;;31.83;22.13;;;-1.90;99.90;;;;;;2615132;54;20386;-71
2023/01/20 20:03:05;;;;;;;36.37;20.37;;;-2.00;99.90;;;;;;2612993;39;20674;-71
2023/01/20 20:08:55;;;;;;;33.90;23.90;;;-2.00;99.90;;;;;;2614364;39;20782;-72
2023/01/20 20:14:43;;;;;;;44.03;24.10;;;-2.10;99.90;;;;;;2613611;54;20402;-72
2023/01/20 20:20:32;;;;;;;35.40;23.90;;;-2.20;99.90;;;;;;2613392;54;20147;-71
2023/01/20 20:26:22;;;;;;;37.90;24.00;;;-2.30;99.90;;;;;;2614799;39;20785;-71
2023/01/20 20:29:32;;;;;;;43.57;26.70;;;-2.30;99.90;;;;;;2614016;54;20425;-71
2023/01/20 20:31:57;;;;;;;34.90;23.80;;;-2.20;99.90;;;;;;2613399;47;20510;-71
2023/01/20 20:37:46;;;;;;;45.37;24.50;;;-1.90;99.90;;;;;;2613308;54;20143;-76
2023/01/20 20:43:35;;;;;;;33.90;24.23;;;-1.70;99.90;;;;;;2614493;54;20396;-73
2023/01/20 20:49:30;;;;;;;33.20;23.83;;;-1.70;99.90;;;;;;2615319;39;20859;-71
2023/01/20 20:55:18;;;;;;;37.50;24.20;;;-1.80;99.90;;;;;;2615660;46;20869;-72
2023/01/20 21:01:10;;;;;;;38.53;23.13;;;-1.60;99.90;;;;;;2614933;54;20740;-74
2023/01/20 21:06:58;;;;;;;38.20;23.70;;;-1.80;99.90;;;;;;2614024;54;20382;-75
2023/01/20 21:12:46;;;;;;;36.53;24.23;;;-1.80;99.90;;;;;;2615502;54;20138;-73
2023/01/20 21:18:43;;;;;;;38.63;24.67;;;-2.00;99.90;;;;;;2615274;46;20439;-72
2023/01/20 21:24:31;;;;;;;47.93;26.63;;;-2.00;99.90;;;;;;2614933;54;20375;-71
2023/01/20 21:34:05;;;;;;;40.87;23.97;;;-2.00;99.90;;;;;;2614237;54;20976;-71
2023/01/20 21:39:53;;;;;;;30.33;22.47;;;-2.40;99.90;;;;;;2614803;54;20426;-71
2023/01/20 21:45:41;;;;;;;44.43;23.20;;;-2.00;99.90;;;;;;2615681;54;20679;-71
2023/01/20 21:57:39;;;;;;;49.50;24.60;;;-2.20;99.90;;;;;;2614175;54;21295;-70
2023/01/20 22:03:26;;;;;;;38.93;25.30;;;-2.00;99.90;;;;;;2612481;54;21048;-71
2023/01/20 22:09:14;;;;;;;43.63;28.63;;;-2.10;99.90;;;;;;2612901;54;20130;-74
2023/01/20 22:15:02;;;;;;;43.30;26.93;;;-2.20;99.90;;;;;;2613245;54;20126;-70
2023/01/20 22:20:50;;;;;;;40.50;25.47;;;-2.10;99.90;;;;;;2615005;54;20408;-72
2023/01/20 22:26:38;;;;;;;45.10;25.37;;;-2.00;99.90;;;;;;2613810;54;20390;-71
2023/01/20 22:29:32;;;;;;;45.03;24.80;;;-1.80;99.90;;;;;;2612605;47;20912;-72
2023/01/20 22:32:01;;;;;;;54.63;27.93;;;-1.80;99.90;;;;;;2615746;54;20413;-71
2023/01/20 22:37:48;;;;;;;43.60;26.10;;;-1.90;99.90;;;;;;2614690;39;20918;-71
2023/01/20 22:43:38;;;;;;;48.10;30.43;;;-1.90;99.90;;;;;;2613420;54;20202;-72
2023/01/20 22:49:28;;;;;;;49.90;29.30;;;-1.80;99.90;;;;;;2613470;54;20904;-70
2023/01/20 22:55:16;;;;;;;46.53;27.80;;;-1.60;99.90;;;;;;2613346;54;20386;-70
2023/01/20 23:01:09;;;;;;;54.73;29.77;;;-1.50;99.90;;;;;;2613701;54;20134;-72
2023/01/20 23:06:57;;;;;;;50.27;27.07;;;-1.60;99.90;;;;;;2614621;54;20387;-72
2023/01/20 23:12:45;;;;;;;45.10;26.47;;;-1.60;99.90;;;;;;2612502;39;20569;-71
2023/01/20 23:18:32;;;;;;;46.83;26.13;;;-1.80;99.90;;;;;;2613031;54;20672;-71
2023/01/20 23:24:20;;;;;;;44.37;26.73;;;-1.80;99.90;;;;;;2612301;54;20251;-71
2023/01/20 23:34:07;;;;;;;49.90;29.17;;;-1.90;99.90;;;;;;2614216;39;20756;-70
2023/01/20 23:39:55;;;;;;;49.77;29.50;;;-1.80;99.90;;;;;;2612838;54;22907;-72
2023/01/20 23:45:43;;;;;;;47.90;29.07;;;-1.80;99.90;;;;;;2614060;54;20203;-71
2023/01/20 23:51:30;;;;;;;44.90;27.33;;;-1.90;99.90;;;;;;2615914;54;20138;-70
2023/01/20 23:57:19;;;;;;;38.27;25.77;;;-2.00;99.90;;;;;;2613286;54;20166;-74
